Time;durP1;ratioP1;P1;durP2;ratioP2;P2;SDS_P1;SDS_P2;PMS_P1;PMS_P2;Temp;Humidity;BMP_temperature;BMP_pressure;BME280_temperature;BME280_humidity;BME280_pressure;Samples;Min_cycle;Max_cycle;Signal;HPM_P1;HPM_P2
2024/03/01 00:00:29;;;;;;;;;3.00;1.00;;;;;;;;5086429;27;47095;-52
2024/03/01 00:02:54;;;;;;;;;1.00;1.00;;;;;;;;5079259;27;45355;-52
2024/03/01 00:05:20;;;;;;;;;2.00;2.00;;;;;;;;5076301;27;45306;-52
2024/03/01 00:07:45;;;;;;;;;2.00;2.00;;;;;;;;5079117;27;45355;-49
2024/03/01 00:10:10;;;;;;;;;4.00;2.67;;;;;;;;5086838;27;46203;-51
2024/03/01 00:12:36;;;;;;;;;2.33;2.00;;;;;;;;5081841;27;45211;-50
2024/03/01 00:15:01;;;;;;;;;0.33;0.33;;;;;;;;5086293;27;45339;-49
2024/03/01 00:17:26;;;;;;;;;2.67;2.33;;;;;;;;5088293;27;45407;-51
2024/03/01 00:19:52;;;;;;;;;2.00;2.00;;;;;;;;5070284;28;46517;-51
2024/03/01 00:22:18;;;;;;;;;5.00;3.67;;;;;;;;5085845;27;45330;-51
2024/03/01 00:24:43;;;;;;;;;3.00;3.00;;;;;;;;5087514;27;45235;-51
2024/03/01 00:27:08;;;;;;;;;4.00;3.00;;;;;;;;5090317;27;45269;-52
2024/03/01 00:29:33;;;;;;;;;2.00;2.00;;;;;;;;5080599;27;45442;-50
2024/03/01 00:31:59;;;;;;;;;1.00;1.00;;;;;;;;5083586;27;45243;-51
2024/03/01 00:34:24;;;;;;;;;3.00;3.00;;;;;;;;5073905;27;45539;-51
2024/03/01 00:36:49;;;;;;;;;2.00;2.00;;;;;;;;5089561;27;45329;-50
2024/03/01 00:39:14;;;;;;;;;3.00;2.00;;;;;;;;5078374;27;46413;-52
2024/03/01 00:41:39;;;;;;;;;2.00;2.00;;;;;;;;5089382;27;45281;-50
2024/03/01 00:44:05;;;;;;;;;2.67;2.67;;;;;;;;5088522;27;45477;-51
2024/03/01 00:46:30;;;;;;;;;2.00;2.00;;;;;;;;5081678;27;45670;-51
2024/03/01 00:48:56;;;;;;;;;1.00;1.00;;;;;;;;5087836;27;45585;-52
2024/03/01 00:51:21;;;;;;;;;2.00;2.00;;;;;;;;5088773;27;45439;-51
2024/03/01 00:53:46;;;;;;;;;0.33;0.33;;;;;;;;5077376;27;45290;-50
2024/03/01 00:56:12;;;;;;;;;3.33;2.00;;;;;;;;5078828;27;45814;-50
2024/03/01 00:58:37;;;;;;;;;3.67;2.00;;;;;;;;5078148;27;45511;-51
2024/03/01 01:01:02;;;;;;;;;1.00;1.00;;;;;;;;5079265;27;45305;-52
2024/03/01 01:03:27;;;;;;;;;1.33;0.33;;;;;;;;5078777;27;45315;-51
2024/03/01 01:05:52;;;;;;;;;1.00;1.00;;;;;;;;5077851;27;45244;-52
2024/03/01 01:08:18;;;;;;;;;3.00;1.00;;;;;;;;5086515;27;46441;-51
2024/03/01 01:10:43;;;;;;;;;0.33;0.33;;;;;;;;5090438;27;45364;-50
2024/03/01 01:13:08;;;;;;;;;1.00;1.00;;;;;;;;5091273;27;45283;-50
2024/03/01 01:15:34;;;;;;;;;1.00;1.00;;;;;;;;5089766;27;45381;-53
2024/03/01 01:17:59;;;;;;;;;0.67;0.00;;;;;;;;5080155;27;45412;-50
2024/03/01 01:20:24;;;;;;;;;2.00;1.00;;;;;;;;5078094;27;45342;-50
2024/03/01 01:22:50;;;;;;;;;1.00;1.00;;;;;;;;5089164;27;45451;-53
2024/03/01 01:25:15;;;;;;;;;2.00;0.67;;;;;;;;5089814;27;45546;-53
2024/03/01 01:27:40;;;;;;;;;3.00;1.00;;;;;;;;5086586;27;45409;-52
2024/03/01 01:30:06;;;;;;;;;3.33;1.00;;;;;;;;5090588;27;45342;-51
2024/03/01 01:32:31;;;;;;;;;0.00;0.00;;;;;;;;5094340;27;45754;-53
2024/03/01 01:34:56;;;;;;;;;0.00;0.00;;;;;;;;5089841;27;45408;-50
2024/03/01 01:37:21;;;;;;;;;1.00;1.00;;;;;;;;5089608;27;46159;-52
2024/03/01 01:39:46;;;;;;;;;0.33;0.00;;;;;;;;5094719;27;45364;-50
2024/03/01 01:42:12;;;;;;;;;0.00;0.00;;;;;;;;5098345;27;45580;-53
2024/03/01 01:44:37;;;;;;;;;0.00;0.00;;;;;;;;5095102;27;45399;-52
2024/03/01 01:47:02;;;;;;;;;0.00;0.00;;;;;;;;5090429;27;46338;-53
2024/03/01 01:49:28;;;;;;;;;0.00;0.00;;;;;;;;5084487;27;45137;-51
2024/03/01 01:51:54;;;;;;;;;0.00;0.00;;;;;;;;5098822;27;45462;-52
2024/03/01 01:54:19;;;;;;;;;1.00;1.00;;;;;;;;5094567;27;45222;-50
2024/03/01 01:56:45;;;;;;;;;1.00;1.00;;;;;;;;5093406;27;46293;-50
2024/03/01 01:59:12;;;;;;;;;4.00;1.00;;;;;;;;5087799;27;45349;-52
2024/03/01 02:01:38;;;;;;;;;1.00;0.00;;;;;;;;5087996;27;45431;-52
2024/03/01 02:04:03;;;;;;;;;0.00;0.00;;;;;;;;5078804;27;45646;-51
2024/03/01 02:06:29;;;;;;;;;1.33;1.00;;;;;;;;5083677;27;46470;-50
2024/03/01 02:08:55;;;;;;;;;3.00;0.00;;;;;;;;5091520;27;45424;-50
2024/03/01 02:11:20;;;;;;;;;2.00;0.00;;;;;;;;5092725;27;45385;-50
2024/03/01 02:13:45;;;;;;;;;1.00;1.00;;;;;;;;5091684;27;45463;-53
2024/03/01 02:16:10;;;;;;;;;1.33;1.00;;;;;;;;5088794;27;45972;-50
2024/03/01 02:18:35;;;;;;;;;0.67;0.00;;;;;;;;5084973;27;46234;-53
2024/03/01 02:21:01;;;;;;;;;2.00;0.00;;;;;;;;5096480;27;45199;-53
2024/03/01 02:23:26;;;;;;;;;0.00;0.00;;;;;;;;5085100;27;45333;-51
2024/03/01 02:25:52;;;;;;;;;0.00;0.00;;;;;;;;5084461;27;45357;-50
2024/03/01 02:28:17;;;;;;;;;1.00;0.00;;;;;;;;5086942;27;45425;-50
2024/03/01 02:30:44;;;;;;;;;2.00;1.00;;;;;;;;5082344;27;45426;-52
2024/03/01 02:33:09;;;;;;;;;0.00;0.00;;;;;;;;5082604;27;45354;-51
2024/03/01 02:35:34;;;;;;;;;2.00;0.00;;;;;;;;5087247;27;45431;-50
2024/03/01 02:38:00;;;;;;;;;2.00;0.00;;;;;;;;5087838;27;45439;-50
2024/03/01 02:40:25;;;;;;;;;1.00;1.00;;;;;;;;5080630;27;45283;-50
2024/03/01 02:42:50;;;;;;;;;0.00;0.00;;;;;;;;5080732;27;45279;-53
2024/03/01 02:45:15;;;;;;;;;0.00;0.00;;;;;;;;5080032;27;45287;-52
2024/03/01 02:47:40;;;;;;;;;1.00;1.00;;;;;;;;5079587;27;45482;-50
2024/03/01 02:50:08;;;;;;;;;1.33;0.00;;;;;;;;5080568;27;45428;-50
2024/03/01 02:52:35;;;;;;;;;1.00;1.00;;;;;;;;5081724;27;45345;-53
2024/03/01 02:55:00;;;;;;;;;0.00;0.00;;;;;;;;5081373;27;46203;-53
2024/03/01 02:57:25;;;;;;;;;0.00;0.00;;;;;;;;5081655;27;45488;-51
2024/03/01 02:59:50;;;;;;;;;1.00;1.00;;;;;;;;5081493;27;45449;-52
2024/03/01 03:02:16;;;;;;;;;2.33;1.00;;;;;;;;5078525;27;45302;-50
2024/03/01 03:04:41;;;;;;;;;0.00;0.00;;;;;;;;5078723;27;45445;-51
2024/03/01 03:07:06;;;;;;;;;2.00;0.00;;;;;;;;5079991;27;45282;-51
2024/03/01 03:09:31;;;;;;;;;1.00;1.00;;;;;;;;5095822;27;45553;-52
2024/03/01 03:11:56;;;;;;;;;0.33;0.33;;;;;;;;5084256;27;45275;-52
2024/03/01 03:14:22;;;;;;;;;1.00;1.00;;;;;;;;5079474;28;46357;-54
2024/03/01 03:16:50;;;;;;;;;2.00;0.00;;;;;;;;5079240;27;45277;-51
2024/03/01 03:19:15;;;;;;;;;1.33;0.00;;;;;;;;5087257;27;45348;-53
2024/03/01 03:21:41;;;;;;;;;2.33;0.00;;;;;;;;5080380;27;45551;-52
2024/03/01 03:24:07;;;;;;;;;0.00;0.00;;;;;;;;5082650;27;45803;-53
2024/03/01 03:26:32;;;;;;;;;1.00;0.00;;;;;;;;5080252;27;45417;-54
2024/03/01 03:28:57;;;;;;;;;0.00;0.00;;;;;;;;5080565;27;45955;-54
2024/03/01 03:31:22;;;;;;;;;0.00;0.00;;;;;;;;5080369;27;45453;-49
2024/03/01 03:33:47;;;;;;;;;1.00;1.00;;;;;;;;5085431;27;45664;-53
2024/03/01 03:36:13;;;;;;;;;0.67;0.67;;;;;;;;5088298;27;45449;-50
2024/03/01 03:38:38;;;;;;;;;1.00;1.00;;;;;;;;5096938;27;45423;-51
2024/03/01 03:41:04;;;;;;;;;1.00;1.00;;;;;;;;5084638;27;45379;-49
2024/03/01 03:43:29;;;;;;;;;0.00;0.00;;;;;;;;5090524;27;45464;-52
2024/03/01 03:45:54;;;;;;;;;0.00;0.00;;;;;;;;5091164;27;45386;-50
2024/03/01 03:48:19;;;;;;;;;0.00;0.00;;;;;;;;5087506;27;45275;-52
2024/03/01 03:50:44;;;;;;;;;0.33;0.00;;;;;;;;5093115;27;45440;-52
2024/03/01 03:53:10;;;;;;;;;3.00;0.00;;;;;;;;5092059;27;46333;-51
2024/03/01 03:55:35;;;;;;;;;3.00;1.00;;;;;;;;5092796;27;45339;-50
2024/03/01 03:58:00;;;;;;;;;0.00;0.00;;;;;;;;5088375;27;45581;-53
2024/03/01 04:00:25;;;;;;;;;3.00;1.33;;;;;;;;5090930;27;45379;-52
2024/03/01 04:02:51;;;;;;;;;0.00;0.00;;;;;;;;5078851;27;45638;-49
2024/03/01 04:05:16;;;;;;;;;0.00;0.00;;;;;;;;5079188;27;45385;-54
2024/03/01 04:07:42;;;;;;;;;0.00;0.00;;;;;;;;5093504;27;45330;-50
2024/03/01 04:10:09;;;;;;;;;1.00;0.00;;;;;;;;5085405;27;46501;-52
2024/03/01 04:12:34;;;;;;;;;1.00;1.00;;;;;;;;5092284;27;46186;-51
2024/03/01 04:14:59;;;;;;;;;1.00;1.00;;;;;;;;5078764;27;45270;-52
2024/03/01 04:17:28;;;;;;;;;2.00;0.00;;;;;;;;5081117;27;45270;-50
2024/03/01 04:19:53;;;;;;;;;2.00;0.00;;;;;;;;5085939;27;45325;-53
2024/03/01 04:22:18;;;;;;;;;0.00;0.00;;;;;;;;5077446;27;45639;-53
2024/03/01 04:24:44;;;;;;;;;0.00;0.00;;;;;;;;5080369;27;45463;-52
2024/03/01 04:27:09;;;;;;;;;0.00;0.00;;;;;;;;5087827;27;45321;-51
2024/03/01 04:29:34;;;;;;;;;1.00;0.67;;;;;;;;5088172;27;45243;-53
2024/03/01 04:31:59;;;;;;;;;0.00;0.00;;;;;;;;5079715;27;45438;-53
2024/03/01 04:34:25;;;;;;;;;0.00;0.00;;;;;;;;5065852;27;45299;-50
2024/03/01 04:36:50;;;;;;;;;1.00;1.00;;;;;;;;5076995;27;45682;-53
2024/03/01 04:39:15;;;;;;;;;1.00;1.00;;;;;;;;5079047;27;45456;-50
2024/03/01 04:41:40;;;;;;;;;2.00;0.67;;;;;;;;5080111;27;46425;-53
2024/03/01 04:44:06;;;;;;;;;4.00;1.00;;;;;;;;5079074;27;45430;-50
2024/03/01 04:46:31;;;;;;;;;0.00;0.00;;;;;;;;5077067;27;45334;-55
2024/03/01 04:48:56;;;;;;;;;1.00;1.00;;;;;;;;5079837;27;45491;-53
2024/03/01 04:51:25;;;;;;;;;2.33;1.00;;;;;;;;5080403;27;46806;-50
2024/03/01 04:53:51;;;;;;;;;0.67;0.00;;;;;;;;5080708;27;45286;-51
2024/03/01 04:56:19;;;;;;;;;0.67;0.67;;;;;;;;5080449;27;45895;-53
2024/03/01 04:58:44;;;;;;;;;0.00;0.00;;;;;;;;5082825;27;45863;-50
2024/03/01 05:01:10;;;;;;;;;0.00;0.00;;;;;;;;5084484;27;45814;-50
2024/03/01 05:03:36;;;;;;;;;1.00;1.00;;;;;;;;5082690;27;45338;-53
2024/03/01 05:06:03;;;;;;;;;1.00;0.00;;;;;;;;5083803;27;45423;-50
2024/03/01 05:08:28;;;;;;;;;1.00;0.00;;;;;;;;5094388;27;45340;-53
2024/03/01 05:10:53;;;;;;;;;0.00;0.00;;;;;;;;5093846;27;47189;-52
2024/03/01 05:13:19;;;;;;;;;2.67;1.00;;;;;;;;5093320;27;45589;-51
2024/03/01 05:15:45;;;;;;;;;2.00;2.00;;;;;;;;5095743;27;45184;-50
2024/03/01 05:18:11;;;;;;;;;0.33;0.33;;;;;;;;5087147;27;45517;-50
2024/03/01 05:20:37;;;;;;;;;1.67;0.33;;;;;;;;5095512;27;45470;-52
2024/03/01 05:23:02;;;;;;;;;2.00;0.00;;;;;;;;5082887;27;45594;-51
2024/03/01 05:25:27;;;;;;;;;1.00;1.00;;;;;;;;5086794;27;45313;-53
2024/03/01 05:27:53;;;;;;;;;3.00;1.33;;;;;;;;5087473;27;45453;-50
2024/03/01 05:30:19;;;;;;;;;0.67;0.67;;;;;;;;5089462;27;46216;-51
2024/03/01 05:32:45;;;;;;;;;2.67;0.33;;;;;;;;5078770;27;45476;-50
2024/03/01 05:35:12;;;;;;;;;2.00;0.00;;;;;;;;5087605;27;45245;-52
2024/03/01 05:37:37;;;;;;;;;2.67;1.67;;;;;;;;5083621;27;45366;-54
2024/03/01 05:40:03;;;;;;;;;1.00;1.00;;;;;;;;5095960;27;46164;-52
2024/03/01 05:42:28;;;;;;;;;1.00;1.00;;;;;;;;5096184;27;45405;-52
2024/03/01 05:44:53;;;;;;;;;0.67;0.00;;;;;;;;5096873;27;45544;-53
2024/03/01 05:47:18;;;;;;;;;1.33;1.00;;;;;;;;5093652;27;45475;-53
2024/03/01 05:49:44;;;;;;;;;1.00;0.00;;;;;;;;5094991;27;46121;-53
2024/03/01 05:52:09;;;;;;;;;2.67;2.00;;;;;;;;5082584;27;45573;-51
2024/03/01 05:54:35;;;;;;;;;2.00;1.00;;;;;;;;5084174;27;45477;-50
2024/03/01 05:57:00;;;;;;;;;2.67;0.33;;;;;;;;5094854;27;45577;-54
2024/03/01 05:59:25;;;;;;;;;2.00;1.00;;;;;;;;5095509;27;45296;-51
2024/03/01 06:01:51;;;;;;;;;2.00;2.00;;;;;;;;5086190;27;45574;-53
2024/03/01 06:04:16;;;;;;;;;0.33;0.33;;;;;;;;5080612;27;45529;-52
2024/03/01 06:06:41;;;;;;;;;3.67;0.67;;;;;;;;5081338;27;45547;-52
2024/03/01 06:09:06;;;;;;;;;0.00;0.00;;;;;;;;5083506;27;45549;-54
2024/03/01 06:11:32;;;;;;;;;0.67;0.67;;;;;;;;5093780;27;45348;-53
2024/03/01 06:13:57;;;;;;;;;0.67;0.67;;;;;;;;5088471;27;45661;-50
2024/03/01 06:16:22;;;;;;;;;1.00;1.00;;;;;;;;5088750;27;45418;-49
2024/03/01 06:18:47;;;;;;;;;3.33;2.00;;;;;;;;5078050;27;45527;-53
2024/03/01 06:21:19;;;;;;;;;7.33;1.00;;;;;;;;5081867;27;45334;-50
2024/03/01 06:23:44;;;;;;;;;2.00;2.00;;;;;;;;5090189;27;45298;-51
2024/03/01 06:26:09;;;;;;;;;1.00;1.00;;;;;;;;5081256;27;45382;-51
2024/03/01 06:28:34;;;;;;;;;1.00;1.00;;;;;;;;5085361;27;46498;-52
2024/03/01 06:31:00;;;;;;;;;1.67;1.00;;;;;;;;5088886;27;45268;-50
2024/03/01 06:33:25;;;;;;;;;1.33;1.33;;;;;;;;5086868;27;45590;-52
2024/03/01 06:35:50;;;;;;;;;1.67;1.67;;;;;;;;5078387;28;45480;-51
2024/03/01 06:38:15;;;;;;;;;2.00;1.67;;;;;;;;5078887;28;45339;-52
2024/03/01 06:40:40;;;;;;;;;4.00;1.00;;;;;;;;5079782;27;45528;-50
2024/03/01 06:43:06;;;;;;;;;7.00;2.00;;;;;;;;5078416;27;45560;-53
2024/03/01 06:45:32;;;;;;;;;5.00;3.00;;;;;;;;5080555;27;45382;-50
2024/03/01 06:47:57;;;;;;;;;2.00;2.00;;;;;;;;5079665;27;45481;-53
2024/03/01 06:50:22;;;;;;;;;2.33;2.33;;;;;;;;5077962;27;45604;-50
2024/03/01 06:52:47;;;;;;;;;3.33;2.00;;;;;;;;5078584;27;45539;-52
2024/03/01 06:55:13;;;;;;;;;2.00;1.33;;;;;;;;5072754;27;45390;-53
2024/03/01 06:57:39;;;;;;;;;2.00;2.00;;;;;;;;5080268;27;46983;-53
2024/03/01 07:00:06;;;;;;;;;4.67;2.67;;;;;;;;5074076;28;45880;-53
2024/03/01 07:02:31;;;;;;;;;2.00;2.00;;;;;;;;5071034;28;45511;-53
2024/03/01 07:04:56;;;;;;;;;2.00;1.67;;;;;;;;5071529;27;45272;-52
2024/03/01 07:07:21;;;;;;;;;1.33;1.33;;;;;;;;5077490;28;45382;-51
2024/03/01 07:09:46;;;;;;;;;5.00;2.00;;;;;;;;5079002;27;45456;-49
2024/03/01 07:12:12;;;;;;;;;2.00;2.00;;;;;;;;5079066;27;45648;-52
2024/03/01 07:14:37;;;;;;;;;4.67;1.33;;;;;;;;5073147;27;45205;-49
2024/03/01 07:17:02;;;;;;;;;3.33;3.00;;;;;;;;5077663;28;47059;-49
2024/03/01 07:19:27;;;;;;;;;2.00;2.00;;;;;;;;5070973;27;45612;-50
2024/03/01 07:21:56;;;;;;;;;2.00;1.00;;;;;;;;5078674;27;45365;-51
2024/03/01 07:24:22;;;;;;;;;3.67;2.00;;;;;;;;5075411;27;45479;-52
2024/03/01 07:26:47;;;;;;;;;2.00;2.00;;;;;;;;5073980;27;46584;-52
2024/03/01 07:29:12;;;;;;;;;4.67;3.00;;;;;;;;5073266;27;45851;-50
2024/03/01 07:31:37;;;;;;;;;3.33;2.33;;;;;;;;5076730;27;45425;-52
2024/03/01 07:34:03;;;;;;;;;3.67;3.00;;;;;;;;5078481;27;45595;-51
2024/03/01 07:36:28;;;;;;;;;4.33;2.67;;;;;;;;5076199;27;45417;-52
2024/03/01 07:38:53;;;;;;;;;2.00;2.00;;;;;;;;5077931;27;45589;-54
2024/03/01 07:41:21;;;;;;;;;7.67;4.00;;;;;;;;5079336;27;45630;-48
2024/03/01 07:43:46;;;;;;;;;2.00;1.67;;;;;;;;5070937;27;45416;-50
2024/03/01 07:46:11;;;;;;;;;4.67;3.00;;;;;;;;5077536;28;47020;-52
2024/03/01 07:48:37;;;;;;;;;2.33;2.33;;;;;;;;5073206;27;45396;-50
2024/03/01 07:51:02;;;;;;;;;2.00;1.00;;;;;;;;5076956;27;45357;-50
2024/03/01 07:53:28;;;;;;;;;3.00;1.00;;;;;;;;5074451;27;45283;-50
2024/03/01 07:55:53;;;;;;;;;5.33;3.00;;;;;;;;5078028;27;46254;-51
2024/03/01 07:58:18;;;;;;;;;2.00;2.00;;;;;;;;5067700;27;45448;-49
2024/03/01 08:00:43;;;;;;;;;2.00;1.67;;;;;;;;5071281;27;45306;-49
2024/03/01 08:03:09;;;;;;;;;2.00;2.00;;;;;;;;5071105;27;45496;-54
2024/03/01 08:05:35;;;;;;;;;2.00;1.00;;;;;;;;5072496;27;47228;-57
2024/03/01 08:08:00;;;;;;;;;2.33;1.67;;;;;;;;5067192;27;45505;-57
2024/03/01 08:10:29;;;;;;;;;3.67;2.00;;;;;;;;5082593;27;45495;-56
2024/03/01 08:12:54;;;;;;;;;2.00;2.00;;;;;;;;5079053;27;45434;-51
2024/03/01 08:15:25;;;;;;;;;2.00;2.00;;;;;;;;5077074;27;45307;-54
2024/03/01 08:17:50;;;;;;;;;1.33;1.00;;;;;;;;5082266;27;45196;-56
2024/03/01 08:20:34;;;;;;;;;1.33;1.33;;;;;;;;5081648;27;45788;-54
2024/03/01 08:23:00;;;;;;;;;2.67;1.33;;;;;;;;5079358;27;45489;-55
2024/03/01 08:25:25;;;;;;;;;1.33;1.00;;;;;;;;5077584;27;46983;-55
2024/03/01 08:27:53;;;;;;;;;2.67;0.00;;;;;;;;5076076;27;45340;-55
2024/03/01 08:30:51;;;;;;;;;4.33;1.00;;;;;;;;5073197;27;44782;-53
2024/03/01 08:33:17;;;;;;;;;3.33;1.00;;;;;;;;5053416;28;45875;-55
2024/03/01 08:35:43;;;;;;;;;3.33;1.00;;;;;;;;5076434;27;46536;-50
2024/03/01 08:38:27;;;;;;;;;2.00;1.00;;;;;;;;5077017;27;45405;-50
2024/03/01 08:40:54;;;;;;;;;2.33;1.00;;;;;;;;5078473;27;45545;-53
2024/03/01 08:43:19;;;;;;;;;2.00;0.33;;;;;;;;5064503;27;45298;-46
2024/03/01 08:45:45;;;;;;;;;5.00;2.00;;;;;;;;5075207;27;46080;-46
2024/03/01 08:48:15;;;;;;;;;1.00;1.00;;;;;;;;5077440;27;45552;-46
2024/03/01 08:50:47;;;;;;;;;2.00;1.00;;;;;;;;5076153;27;45429;-47
2024/03/01 08:53:31;;;;;;;;;6.33;2.00;;;;;;;;5078243;27;45401;-47
2024/03/01 08:55:56;;;;;;;;;0.00;0.00;;;;;;;;5078015;28;46126;-47
2024/03/01 08:58:27;;;;;;;;;1.33;0.00;;;;;;;;5080376;27;45425;-47
2024/03/01 09:00:56;;;;;;;;;0.33;0.33;;;;;;;;5086883;27;45428;-50
2024/03/01 09:03:26;;;;;;;;;2.00;2.00;;;;;;;;5071355;27;46045;-48
2024/03/01 09:05:55;;;;;;;;;2.67;1.00;;;;;;;;5076063;27;46118;-46
2024/03/01 09:08:24;;;;;;;;;0.33;0.33;;;;;;;;5073285;27;46882;-48
2024/03/01 09:10:50;;;;;;;;;0.00;0.00;;;;;;;;5074495;27;45477;-48
2024/03/01 09:13:16;;;;;;;;;4.00;1.00;;;;;;;;5076624;27;45437;-49
2024/03/01 09:15:43;;;;;;;;;1.67;1.67;;;;;;;;5075488;27;45400;-49
2024/03/01 09:18:49;;;;;;;;;5.00;2.00;;;;;;;;5074296;27;45486;-46
2024/03/01 09:21:34;;;;;;;;;2.00;1.00;;;;;;;;5053296;28;45335;-47
2024/03/01 09:24:00;;;;;;;;;0.67;0.67;;;;;;;;5053870;28;45632;-49
2024/03/01 09:26:25;;;;;;;;;0.67;0.00;;;;;;;;5070052;27;46225;-48
2024/03/01 09:28:50;;;;;;;;;2.00;1.33;;;;;;;;5079004;27;45648;-47
2024/03/01 09:31:16;;;;;;;;;2.00;0.67;;;;;;;;5082709;27;45549;-50
2024/03/01 09:33:41;;;;;;;;;1.00;1.00;;;;;;;;5076463;27;46099;-47
2024/03/01 09:36:11;;;;;;;;;3.00;1.00;;;;;;;;5080066;27;45484;-46
2024/03/01 09:38:38;;;;;;;;;1.67;1.00;;;;;;;;5076329;27;45492;-46
2024/03/01 09:41:19;;;;;;;;;1.00;1.00;;;;;;;;5078175;27;45621;-47
2024/03/01 09:43:44;;;;;;;;;4.67;2.00;;;;;;;;5079377;27;46022;-45
2024/03/01 09:46:16;;;;;;;;;7.33;1.00;;;;;;;;5077929;27;47150;-49
2024/03/01 09:48:49;;;;;;;;;2.33;1.00;;;;;;;;5084755;27;45611;-44
2024/03/01 09:51:32;;;;;;;;;5.00;1.00;;;;;;;;5084214;27;45738;-48
2024/03/01 09:53:58;;;;;;;;;3.33;1.67;;;;;;;;5083479;27;45393;-47
2024/03/01 09:56:42;;;;;;;;;1.00;1.00;;;;;;;;5082223;27;45443;-47
2024/03/01 09:59:12;;;;;;;;;2.00;1.67;;;;;;;;5082472;27;45513;-47
2024/03/01 10:01:40;;;;;;;;;1.33;1.33;;;;;;;;5076771;27;45522;-49
2024/03/01 10:04:14;;;;;;;;;2.33;2.33;;;;;;;;5080243;27;45504;-50
2024/03/01 10:06:45;;;;;;;;;3.00;2.00;;;;;;;;5073965;27;46018;-49
2024/03/01 10:09:20;;;;;;;;;9.33;7.00;;;;;;;;5077864;27;45465;-51
2024/03/01 10:11:45;;;;;;;;;2.00;2.00;;;;;;;;5078388;27;45404;-48
2024/03/01 10:14:13;;;;;;;;;2.33;0.00;;;;;;;;5080758;27;45187;-48
2024/03/01 10:16:48;;;;;;;;;1.00;1.00;;;;;;;;5080562;27;46449;-49
2024/03/01 10:19:13;;;;;;;;;2.67;1.00;;;;;;;;5085012;27;45435;-49
2024/03/01 10:21:58;;;;;;;;;6.00;2.25;;;;;;;;5081261;27;45357;-48
2024/03/01 10:24:39;;;;;;;;;1.33;1.33;;;;;;;;5053057;27;45496;-50
2024/03/01 10:27:06;;;;;;;;;3.00;2.00;;;;;;;;5078723;27;46172;-47
2024/03/01 10:29:34;;;;;;;;;1.33;1.33;;;;;;;;5080122;27;45948;-48
2024/03/01 10:31:59;;;;;;;;;4.67;1.33;;;;;;;;5078610;27;46530;-52
2024/03/01 10:34:36;;;;;;;;;4.00;1.00;;;;;;;;5073515;27;45424;-51
2024/03/01 10:37:37;;;;;;;;;1.00;0.00;;;;;;;;5075064;27;46796;-48
2024/03/01 10:40:12;;;;;;;;;3.00;1.00;;;;;;;;5073002;27;45603;-48
2024/03/01 10:42:42;;;;;;;;;3.33;1.00;;;;;;;;5075377;27;45514;-49
2024/03/01 10:45:12;;;;;;;;;4.00;1.67;;;;;;;;5076517;27;45466;-46
2024/03/01 10:47:38;;;;;;;;;12.67;7.33;;;;;;;;5078416;27;45794;-47
2024/03/01 10:50:13;;;;;;;;;10.00;5.00;;;;;;;;5075590;27;45400;-46
2024/03/01 10:52:38;;;;;;;;;9.67;5.00;;;;;;;;5068309;28;45418;-49
2024/03/01 10:55:08;;;;;;;;;12.75;8.25;;;;;;;;5076098;27;45531;-48
2024/03/01 10:57:39;;;;;;;;;12.00;10.00;;;;;;;;5077651;27;46344;-49
2024/03/01 11:00:06;;;;;;;;;2.33;2.00;;;;;;;;5077512;27;45445;-51
2024/03/01 11:02:46;;;;;;;;;5.33;5.00;;;;;;;;5076699;27;45431;-50
2024/03/01 11:05:31;;;;;;;;;1.00;1.00;;;;;;;;5076283;27;45513;-48
2024/03/01 11:08:15;;;;;;;;;1.67;1.00;;;;;;;;5077115;27;45870;-49
2024/03/01 11:10:43;;;;;;;;;6.00;4.00;;;;;;;;5074394;27;45482;-48
2024/03/01 11:13:12;;;;;;;;;2.00;2.00;;;;;;;;5077196;27;45595;-49
2024/03/01 11:15:38;;;;;;;;;2.33;1.67;;;;;;;;5078216;27;45491;-48
2024/03/01 11:18:06;;;;;;;;;3.00;2.00;;;;;;;;5078742;27;45468;-47
2024/03/01 11:20:35;;;;;;;;;12.67;7.67;;;;;;;;5078396;27;45377;-50
2024/03/01 11:23:20;;;;;;;;;5.67;3.00;;;;;;;;5078144;27;45379;-48
2024/03/01 11:26:04;;;;;;;;;2.67;2.00;;;;;;;;5074132;27;45471;-48
2024/03/01 11:28:32;;;;;;;;;1.00;1.00;;;;;;;;5077942;27;45520;-47
2024/03/01 11:31:04;;;;;;;;;1.00;1.00;;;;;;;;5077971;27;45240;-49
2024/03/01 11:33:33;;;;;;;;;3.00;2.00;;;;;;;;5068349;27;46310;-51
2024/03/01 11:36:22;;;;;;;;;1.33;1.00;;;;;;;;5075248;27;45526;-51
2024/03/01 11:38:56;;;;;;;;;3.00;2.00;;;;;;;;5073184;27;45648;-52
2024/03/01 11:41:40;;;;;;;;;7.33;3.33;;;;;;;;5072985;27;45605;-51
2024/03/01 11:44:21;;;;;;;;;0.33;0.33;;;;;;;;5076667;27;45237;-52
2024/03/01 11:46:49;;;;;;;;;4.00;1.00;;;;;;;;5092464;27;45524;-52
2024/03/01 11:49:15;;;;;;;;;6.67;2.33;;;;;;;;5089471;27;46270;-50
2024/03/01 11:51:49;;;;;;;;;1.00;0.00;;;;;;;;5083866;27;45220;-54
2024/03/01 11:54:26;;;;;;;;;2.00;2.00;;;;;;;;5092067;27;45188;-50
2024/03/01 11:57:12;;;;;;;;;3.00;1.00;;;;;;;;5070641;27;45385;-50
2024/03/01 11:59:40;;;;;;;;;1.67;1.67;;;;;;;;5078524;28;47491;-50
2024/03/01 12:02:05;;;;;;;;;3.00;0.00;;;;;;;;5077401;27;45425;-48
2024/03/01 12:04:41;;;;;;;;;0.75;0.75;;;;;;;;5071066;28;45440;-49
2024/03/01 12:07:08;;;;;;;;;5.00;1.67;;;;;;;;5078842;27;45615;-50
2024/03/01 12:09:52;;;;;;;;;1.00;1.00;;;;;;;;5078180;28;45325;-49
2024/03/01 12:12:36;;;;;;;;;1.33;1.33;;;;;;;;5078972;27;45206;-49
2024/03/01 12:15:04;;;;;;;;;1.00;1.00;;;;;;;;5072917;27;45308;-50
2024/03/01 12:17:50;;;;;;;;;0.00;0.00;;;;;;;;5084841;27;45389;-49
2024/03/01 12:20:16;;;;;;;;;1.00;1.00;;;;;;;;5073927;27;46400;-49
2024/03/01 12:23:03;;;;;;;;;1.33;1.00;;;;;;;;5078459;28;45318;-48
2024/03/01 12:25:28;;;;;;;;;0.00;0.00;;;;;;;;5078934;27;46666;-48
2024/03/01 12:27:53;;;;;;;;;2.00;0.00;;;;;;;;5079999;27;45429;-47
2024/03/01 12:30:26;;;;;;;;;0.00;0.00;;;;;;;;5077435;27;46302;-49
2024/03/01 12:33:13;;;;;;;;;0.00;0.00;;;;;;;;5074657;28;45459;-48
2024/03/01 12:35:51;;;;;;;;;0.00;0.00;;;;;;;;5078120;28;45557;-49
2024/03/01 12:38:35;;;;;;;;;2.67;0.00;;;;;;;;5075295;27;45491;-50
2024/03/01 12:41:08;;;;;;;;;1.67;1.00;;;;;;;;5072221;27;45756;-46
2024/03/01 12:43:54;;;;;;;;;0.00;0.00;;;;;;;;5070018;27;46155;-49
2024/03/01 12:46:25;;;;;;;;;0.00;0.00;;;;;;;;5071865;27;45476;-47
2024/03/01 12:48:51;;;;;;;;;0.67;0.67;;;;;;;;5072849;27;45440;-47
2024/03/01 12:51:22;;;;;;;;;1.33;1.33;;;;;;;;5076053;27;46374;-50
2024/03/01 12:53:56;;;;;;;;;3.00;1.00;;;;;;;;5075760;27;45639;-49
2024/03/01 12:56:28;;;;;;;;;0.00;0.00;;;;;;;;5070857;27;45549;-50
2024/03/01 12:59:13;;;;;;;;;2.00;0.00;;;;;;;;5069466;27;45430;-47
2024/03/01 13:01:53;;;;;;;;;2.00;0.00;;;;;;;;5070792;27;47858;-51
2024/03/01 13:04:30;;;;;;;;;1.00;0.00;;;;;;;;5075576;27;45626;-49
2024/03/01 13:06:57;;;;;;;;;2.00;0.00;;;;;;;;5070759;27;45331;-49
2024/03/01 13:09:30;;;;;;;;;0.67;0.00;;;;;;;;5066108;27;45343;-51
2024/03/01 13:11:58;;;;;;;;;1.00;0.00;;;;;;;;5058743;28;47783;-48
2024/03/01 13:14:35;;;;;;;;;0.00;0.00;;;;;;;;5067207;27;45338;-50
2024/03/01 13:17:10;;;;;;;;;0.00;0.00;;;;;;;;5073483;27;45614;-47
2024/03/01 13:19:41;;;;;;;;;0.00;0.00;;;;;;;;5079809;27;45433;-48
2024/03/01 13:22:11;;;;;;;;;0.00;0.00;;;;;;;;5075142;27;45545;-48
2024/03/01 13:24:36;;;;;;;;;0.00;0.00;;;;;;;;5071690;27;46541;-50
2024/03/01 13:27:09;;;;;;;;;2.00;1.00;;;;;;;;5080170;27;45290;-47
2024/03/01 13:29:38;;;;;;;;;0.00;0.00;;;;;;;;5073408;27;45521;-49
2024/03/01 13:32:10;;;;;;;;;1.00;0.00;;;;;;;;5077253;27;47210;-48
2024/03/01 13:34:39;;;;;;;;;0.67;0.00;;;;;;;;5076872;27;45445;-48
2024/03/01 13:37:32;;;;;;;;;0.67;0.00;;;;;;;;5075548;27;45538;-46
2024/03/01 13:39:57;;;;;;;;;0.00;0.00;;;;;;;;5078635;27;45722;-47
2024/03/01 13:42:32;;;;;;;;;0.00;0.00;;;;;;;;5076333;27;45536;-47
2024/03/01 13:45:18;;;;;;;;;0.00;0.00;;;;;;;;5078446;27;45627;-46
2024/03/01 13:47:47;;;;;;;;;3.00;0.00;;;;;;;;5070718;27;45662;-50
2024/03/01 13:50:17;;;;;;;;;0.00;0.00;;;;;;;;5073667;27;45538;-48
2024/03/01 13:52:42;;;;;;;;;0.33;0.00;;;;;;;;5078462;27;46184;-47
2024/03/01 13:55:11;;;;;;;;;0.00;0.00;;;;;;;;5076866;27;45397;-49
2024/03/01 13:57:40;;;;;;;;;0.00;0.00;;;;;;;;5075630;27;45591;-47
2024/03/01 14:00:14;;;;;;;;;0.00;0.00;;;;;;;;5079313;27;45486;-46
2024/03/01 14:02:42;;;;;;;;;0.00;0.00;;;;;;;;5071670;27;46169;-47
2024/03/01 14:05:13;;;;;;;;;0.00;0.00;;;;;;;;5078318;27;45469;-47
2024/03/01 14:07:38;;;;;;;;;0.33;0.00;;;;;;;;5078660;27;45405;-47
2024/03/01 14:10:06;;;;;;;;;0.00;0.00;;;;;;;;5079171;27;45558;-50
2024/03/01 14:12:32;;;;;;;;;0.00;0.00;;;;;;;;5079720;27;47539;-48
2024/03/01 14:14:57;;;;;;;;;0.67;0.00;;;;;;;;5078020;27;46820;-49
2024/03/01 14:17:23;;;;;;;;;0.00;0.00;;;;;;;;5078798;27;45447;-47
2024/03/01 14:19:48;;;;;;;;;0.00;0.00;;;;;;;;5078700;27;46477;-47
2024/03/01 14:22:13;;;;;;;;;0.00;0.00;;;;;;;;5078966;27;46322;-45
2024/03/01 14:24:39;;;;;;;;;0.00;0.00;;;;;;;;5079248;27;45305;-50
2024/03/01 14:27:05;;;;;;;;;0.00;0.00;;;;;;;;5076248;27;45476;-49
2024/03/01 14:29:31;;;;;;;;;0.00;0.00;;;;;;;;5078381;27;45322;-49
2024/03/01 14:32:05;;;;;;;;;0.00;0.00;;;;;;;;5078416;27;47846;-49
2024/03/01 14:34:34;;;;;;;;;0.00;0.00;;;;;;;;5067257;28;45534;-49
2024/03/01 14:37:00;;;;;;;;;0.00;0.00;;;;;;;;5074711;27;45725;-46
2024/03/01 14:39:26;;;;;;;;;0.00;0.00;;;;;;;;5078200;28;45460;-47
2024/03/01 14:41:51;;;;;;;;;0.00;0.00;;;;;;;;5076098;27;45466;-50
2024/03/01 14:44:32;;;;;;;;;0.00;0.00;;;;;;;;5069764;27;45366;-49
2024/03/01 14:46:58;;;;;;;;;1.00;0.00;;;;;;;;5077266;28;45424;-48
2024/03/01 14:49:25;;;;;;;;;0.00;0.00;;;;;;;;5079558;27;45527;-49